createdAt,value
2019-02-06T00:00:38.375Z,22.50
2019-02-06T00:03:06.513Z,23.37
2019-02-06T00:05:34.421Z,29.23
2019-02-06T00:08:02.037Z,23.33
2019-02-06T00:10:29.548Z,27.57
2019-02-06T00:12:57.077Z,23.17
2019-02-06T00:15:24.888Z,24.23
2019-02-06T00:17:53.126Z,22.27
2019-02-06T00:20:20.574Z,24.73
2019-02-06T00:22:48.204Z,25.03
2019-02-06T00:25:16.039Z,25.03
2019-02-06T00:27:43.958Z,23.37
2019-02-06T00:30:11.942Z,24.13
2019-02-06T00:32:39.508Z,23.77
2019-02-06T00:35:07.332Z,24.87
2019-02-06T00:37:35.170Z,26.30
2019-02-06T00:40:03.423Z,24.30
2019-02-06T00:42:30.926Z,24.53
2019-02-06T00:44:58.742Z,24.60
2019-02-06T00:47:26.225Z,23.33
2019-02-06T00:49:54.273Z,25.40
2019-02-06T00:52:21.970Z,23.50
2019-02-06T00:54:49.881Z,23.03
2019-02-06T00:57:17.366Z,24.73
2019-02-06T00:59:45.147Z,24.53
2019-02-06T01:02:12.657Z,25.20
2019-02-06T01:04:40.158Z,23.97
2019-02-06T01:07:07.754Z,24.93
2019-02-06T01:09:35.273Z,24.93
2019-02-06T01:12:02.676Z,23.70
2019-02-06T01:14:30.537Z,23.80
2019-02-06T01:16:58.090Z,26.67
2019-02-06T01:19:25.641Z,25.57
2019-02-06T01:21:53.170Z,24.60
2019-02-06T01:24:20.929Z,25.50
2019-02-06T01:26:48.463Z,25.70
2019-02-06T01:29:16.156Z,23.83
2019-02-06T01:31:43.961Z,25.27
2019-02-06T01:34:11.716Z,24.97
2019-02-06T01:36:39.329Z,23.57
2019-02-06T01:39:11.025Z,25.63
2019-02-06T01:41:38.566Z,24.87
2019-02-06T01:44:06.104Z,25.43
2019-02-06T01:46:33.613Z,23.63
2019-02-06T01:49:01.139Z,27.10
2019-02-06T01:51:28.622Z,24.73
2019-02-06T01:53:56.358Z,24.47
2019-02-06T01:56:24.141Z,26.57
2019-02-06T01:58:51.601Z,23.67
2019-02-06T02:01:19.299Z,24.83
2019-02-06T02:03:47.072Z,25.73
2019-02-06T02:06:14.789Z,24.70
2019-02-06T02:08:47.675Z,25.10
2019-02-06T02:11:15.221Z,25.27
2019-02-06T02:13:43.414Z,25.07
2019-02-06T02:16:11.414Z,24.40
2019-02-06T02:18:39.041Z,23.77
2019-02-06T02:21:06.574Z,25.17
2019-02-06T02:23:34.055Z,23.87
2019-02-06T02:26:01.612Z,23.80
2019-02-06T02:28:29.045Z,23.53
2019-02-06T02:30:57.648Z,22.93
2019-02-06T02:33:25.171Z,24.37
2019-02-06T02:35:52.836Z,22.90
2019-02-06T02:38:20.445Z,21.97
2019-02-06T02:40:48.830Z,23.47
2019-02-06T02:43:16.377Z,21.77
2019-02-06T02:45:43.769Z,23.57
2019-02-06T02:48:11.303Z,22.80
2019-02-06T02:50:38.913Z,23.70
2019-02-06T02:53:06.441Z,23.40
2019-02-06T02:55:33.971Z,22.47
2019-02-06T02:58:01.980Z,24.40
2019-02-06T03:00:43.893Z,23.23
2019-02-06T03:03:34.188Z,21.70
2019-02-06T03:06:01.785Z,23.27
2019-02-06T03:08:29.365Z,23.03
2019-02-06T03:16:20.880Z,23.53
2019-02-06T03:18:50.016Z,26.20
2019-02-06T03:21:17.536Z,24.37
2019-02-06T03:23:45.310Z,24.07
2019-02-06T03:26:12.985Z,23.50
2019-02-06T03:28:40.461Z,23.60
2019-02-06T03:31:08.352Z,24.00
2019-02-06T03:33:35.791Z,23.77
2019-02-06T03:36:03.987Z,23.73
2019-02-06T03:38:32.033Z,23.80
2019-02-06T03:40:59.536Z,23.17
2019-02-06T03:43:27.026Z,24.83
2019-02-06T03:45:54.678Z,24.33
2019-02-06T03:48:22.087Z,25.03
2019-02-06T03:50:49.777Z,24.77
2019-02-06T03:53:17.345Z,24.37
2019-02-06T03:55:44.766Z,25.00
2019-02-06T03:58:12.323Z,23.60
2019-02-06T04:00:40.152Z,23.80
2019-02-06T04:03:07.622Z,24.30
2019-02-06T04:05:35.164Z,24.20
2019-02-06T04:08:03.121Z,24.50
2019-02-06T04:10:30.840Z,26.20
2019-02-06T04:12:58.621Z,24.47
2019-02-06T04:15:26.247Z,24.13
2019-02-06T04:17:54.573Z,24.57
2019-02-06T04:20:22.212Z,24.37
2019-02-06T04:22:49.825Z,25.07
2019-02-06T04:25:17.423Z,24.70
2019-02-06T04:27:47.750Z,23.20
2019-02-06T04:30:15.902Z,23.40
2019-02-06T04:32:43.842Z,23.80
2019-02-06T04:35:12.048Z,23.57
2019-02-06T04:37:39.875Z,23.67
2019-02-06T04:40:17.626Z,24.00
2019-02-06T04:42:45.962Z,24.23
2019-02-06T04:45:15.056Z,23.67
2019-02-06T04:47:42.775Z,26.57
2019-02-06T04:50:10.755Z,24.27
2019-02-06T04:52:38.305Z,24.33
2019-02-06T04:55:07.470Z,27.03
2019-02-06T04:57:35.725Z,24.83
2019-02-06T05:00:08.127Z,25.13
2019-02-06T05:02:35.795Z,23.73
2019-02-06T05:05:04.737Z,23.03
2019-02-06T05:07:32.356Z,22.77
2019-02-06T05:09:59.906Z,25.30
2019-02-06T05:12:27.530Z,24.67
2019-02-06T05:14:55.457Z,24.03
2019-02-06T05:17:23.241Z,23.00
2019-02-06T05:19:50.799Z,22.30
2019-02-06T05:22:18.382Z,21.97
2019-02-06T05:24:46.308Z,21.60
2019-02-06T05:27:14.232Z,22.43
2019-02-06T05:29:42.216Z,21.83
2019-02-06T05:32:09.827Z,23.20
2019-02-06T05:34:37.630Z,22.83
2019-02-06T05:37:05.576Z,22.60
2019-02-06T05:39:33.274Z,21.73
2019-02-06T05:42:01.177Z,22.87
2019-02-06T05:44:29.145Z,23.20
2019-02-06T05:46:57.070Z,21.93
2019-02-06T05:49:24.729Z,22.27
2019-02-06T05:51:52.426Z,22.33
2019-02-06T05:54:19.963Z,21.50
2019-02-06T05:56:47.912Z,21.83
2019-02-06T05:59:15.806Z,23.17
2019-02-06T06:01:43.823Z,21.10
2019-02-06T06:04:11.469Z,22.70
2019-02-06T06:06:39.098Z,22.93
2019-02-06T06:09:07.702Z,23.03
2019-02-06T06:11:35.566Z,21.30
2019-02-06T06:14:03.316Z,21.77
2019-02-06T06:16:30.976Z,21.97
2019-02-06T06:18:58.661Z,22.30
2019-02-06T06:21:27.287Z,21.47
2019-02-06T06:23:55.088Z,22.00
2019-02-06T06:26:22.644Z,21.47
2019-02-06T06:28:50.546Z,21.83
2019-02-06T06:31:18.182Z,20.47
2019-02-06T06:33:45.777Z,21.63
2019-02-06T06:36:13.294Z,22.50
2019-02-06T06:38:40.956Z,22.00
2019-02-06T06:41:08.564Z,22.53
2019-02-06T06:43:36.110Z,21.00
2019-02-06T06:46:03.795Z,20.43
2019-02-06T06:48:32.061Z,20.83
2019-02-06T06:50:59.726Z,20.47
2019-02-06T06:53:27.252Z,20.93
2019-02-06T06:55:55.054Z,20.73
2019-02-06T06:58:22.646Z,20.80
2019-02-06T07:00:50.232Z,20.87
2019-02-06T07:03:18.007Z,19.43
2019-02-06T07:05:45.907Z,21.37
2019-02-06T07:08:13.707Z,20.10
2019-02-06T07:10:41.405Z,20.03
2019-02-06T07:13:09.363Z,20.87
2019-02-06T07:15:37.018Z,22.10
2019-02-06T07:18:04.975Z,22.30
2019-02-06T07:20:32.635Z,19.93
2019-02-06T07:23:00.611Z,20.63
2019-02-06T07:25:31.212Z,23.30
2019-02-06T07:28:00.115Z,24.47
2019-02-06T07:30:32.893Z,21.10
2019-02-06T07:33:01.515Z,22.53
2019-02-06T07:35:29.583Z,21.67
2019-02-06T07:37:57.524Z,21.80
2019-02-06T07:40:25.407Z,22.83
2019-02-06T07:42:53.064Z,23.43
2019-02-06T07:45:20.709Z,22.50
2019-02-06T07:47:48.479Z,23.10
2019-02-06T07:50:18.351Z,23.93
2019-02-06T07:52:46.128Z,23.87
2019-02-06T07:55:14.172Z,23.63
2019-02-06T07:57:41.895Z,23.67
2019-02-06T08:00:09.513Z,22.60
2019-02-06T08:02:37.442Z,25.30
2019-02-06T08:05:34.681Z,23.63
2019-02-06T08:08:02.729Z,25.13
2019-02-06T08:10:37.250Z,22.43
2019-02-06T08:13:08.147Z,21.87
2019-02-06T08:15:35.779Z,22.73
2019-02-06T08:18:04.167Z,22.13
2019-02-06T08:20:54.523Z,20.87
2019-02-06T08:23:22.184Z,23.63
2019-02-06T08:25:49.754Z,21.27
2019-02-06T08:28:17.972Z,20.20
2019-02-06T08:30:45.560Z,21.63
2019-02-06T08:33:13.533Z,20.37
2019-02-06T08:35:41.454Z,21.20
2019-02-06T08:38:08.984Z,19.70
2019-02-06T08:40:36.533Z,19.67
2019-02-06T08:43:04.519Z,20.87
2019-02-06T08:45:32.072Z,22.13
2019-02-06T08:47:59.692Z,24.57
2019-02-06T08:50:28.040Z,20.53
2019-02-06T08:52:56.103Z,21.53
2019-02-06T08:55:26.355Z,20.67
2019-02-06T08:57:54.503Z,20.63
2019-02-06T09:00:27.926Z,19.10
2019-02-06T09:02:55.781Z,19.60
2019-02-06T09:05:23.735Z,20.13
2019-02-06T09:07:52.199Z,23.47
2019-02-06T09:10:21.155Z,20.03
2019-02-06T09:12:49.429Z,19.33
2019-02-06T09:15:17.200Z,20.40
2019-02-06T09:17:44.823Z,18.90
2019-02-06T09:20:15.896Z,18.53
2019-02-06T09:22:43.811Z,18.77
2019-02-06T09:25:12.534Z,21.90
2019-02-06T09:27:40.189Z,20.63
2019-02-06T09:30:09.756Z,19.23
2019-02-06T09:32:37.660Z,17.90
2019-02-06T09:35:05.576Z,18.20
2019-02-06T09:37:33.276Z,17.47
2019-02-06T09:40:01.242Z,16.97
2019-02-06T09:42:28.885Z,17.00
2019-02-06T09:44:56.521Z,17.03
2019-02-06T09:47:24.124Z,17.10
2019-02-06T09:49:51.889Z,17.00
2019-02-06T09:52:19.452Z,17.03
2019-02-06T09:54:47.309Z,16.33
2019-02-06T09:57:15.173Z,16.20
2019-02-06T09:59:42.696Z,15.17
2019-02-06T10:02:10.258Z,15.27
2019-02-06T10:04:37.795Z,16.60
2019-02-06T10:07:05.278Z,17.60
2019-02-06T10:09:32.783Z,14.60
2019-02-06T10:12:00.293Z,15.57
2019-02-06T10:14:27.870Z,18.63
2019-02-06T10:16:55.652Z,14.73
2019-02-06T10:19:23.302Z,17.23
2019-02-06T10:21:53.509Z,14.83
2019-02-06T10:24:20.221Z,14.43
2019-02-06T10:26:47.735Z,13.27
2019-02-06T10:29:15.311Z,13.53
2019-02-06T10:31:42.939Z,12.23
2019-02-06T10:34:10.751Z,12.90
2019-02-06T10:36:38.374Z,12.80
2019-02-06T10:39:08.093Z,12.33
2019-02-06T10:41:35.637Z,13.43
2019-02-06T10:44:03.718Z,13.27
2019-02-06T10:46:31.303Z,14.03
2019-02-06T10:48:59.320Z,13.40
2019-02-06T10:51:26.913Z,12.70
2019-02-06T10:53:54.889Z,14.40
2019-02-06T10:56:22.445Z,16.70
2019-02-06T10:58:50.015Z,17.20
2019-02-06T11:01:17.857Z,15.63
2019-02-06T11:03:45.794Z,15.10
2019-02-06T11:06:13.920Z,15.40
2019-02-06T11:08:41.948Z,18.77
2019-02-06T11:11:09.530Z,16.43
2019-02-06T11:13:37.094Z,13.47
2019-02-06T11:16:05.252Z,13.67
2019-02-06T11:18:33.003Z,13.63
2019-02-06T11:21:00.578Z,10.97
2019-02-06T11:23:28.228Z,12.00
2019-02-06T11:25:56.067Z,12.00
2019-02-06T11:28:24.092Z,11.57
2019-02-06T11:30:51.841Z,12.10
2019-02-06T11:33:19.608Z,12.20
2019-02-06T11:35:47.280Z,11.23
2019-02-06T11:38:14.932Z,10.17
2019-02-06T11:40:42.443Z,12.47
2019-02-06T11:43:10.380Z,12.20
2019-02-06T11:45:37.947Z,11.60
2019-02-06T11:48:06.185Z,11.93
2019-02-06T11:50:41.182Z,11.13
2019-02-06T11:53:10.959Z,9.83
2019-02-06T11:55:38.570Z,10.00
2019-02-06T11:58:06.562Z,9.20
2019-02-06T12:00:54.012Z,10.03
2019-02-06T12:03:22.408Z,8.77
2019-02-06T12:05:49.975Z,9.73
2019-02-06T12:08:17.579Z,11.53
2019-02-06T12:10:45.596Z,9.30
2019-02-06T12:13:13.399Z,8.77
2019-02-06T12:15:41.039Z,10.17
2019-02-06T12:18:08.892Z,10.37
2019-02-06T12:20:36.708Z,10.77
2019-02-06T12:23:04.471Z,11.43
2019-02-06T12:25:34.479Z,10.07
2019-02-06T12:28:05.048Z,12.43
2019-02-06T12:30:43.965Z,11.03
2019-02-06T12:33:11.855Z,11.30
2019-02-06T12:35:39.481Z,10.63
2019-02-06T12:38:07.538Z,12.67
2019-02-06T12:40:35.589Z,11.27
2019-02-06T12:43:05.340Z,12.33
2019-02-06T12:45:33.313Z,12.07
2019-02-06T12:48:00.970Z,11.90
2019-02-06T12:50:28.616Z,12.63
2019-02-06T12:52:57.594Z,12.10
2019-02-06T12:55:27.824Z,10.93
2019-02-06T12:57:55.490Z,11.87
2019-02-06T13:00:27.831Z,13.13
2019-02-06T13:02:59.453Z,13.20
2019-02-06T13:05:25.302Z,11.23
2019-02-06T13:07:52.916Z,11.93
2019-02-06T13:10:32.912Z,13.03
2019-02-06T13:12:50.309Z,11.80
2019-02-06T13:15:18.135Z,13.77
2019-02-06T13:17:45.879Z,12.10
2019-02-06T13:20:16.155Z,12.23
2019-02-06T13:22:43.793Z,12.77
2019-02-06T13:25:11.951Z,15.47
2019-02-06T13:27:39.550Z,11.53
2019-02-06T13:30:10.979Z,12.50
2019-02-06T13:32:38.684Z,12.00
2019-02-06T13:35:08.781Z,12.83
2019-02-06T13:37:36.670Z,11.60
2019-02-06T13:40:07.440Z,10.57
2019-02-06T13:42:35.608Z,11.67
2019-02-06T13:45:05.220Z,12.70
2019-02-06T13:47:32.842Z,10.60
2019-02-06T13:50:01.047Z,11.33
2019-02-06T13:52:29.249Z,11.40
2019-02-06T13:54:57.860Z,11.07
2019-02-06T13:57:33.508Z,10.97
2019-02-06T13:59:55.742Z,11.30
2019-02-06T14:02:23.505Z,11.13
2019-02-06T14:04:51.839Z,11.40
2019-02-06T14:07:20.329Z,10.30
2019-02-06T14:09:48.615Z,11.23
2019-02-06T14:12:16.219Z,10.77
2019-02-06T14:14:47.046Z,10.20
2019-02-06T14:17:14.746Z,10.43
2019-02-06T14:19:42.422Z,11.73
2019-02-06T14:22:10.079Z,10.97
2019-02-06T14:24:50.658Z,10.10
2019-02-06T14:27:57.057Z,11.10
2019-02-06T14:30:52.127Z,10.63
2019-02-06T14:33:43.651Z,8.93
2019-02-06T14:37:01.964Z,10.20
2019-02-06T14:39:54.141Z,10.47
2019-02-06T14:42:30.823Z,11.77
2019-02-06T14:45:20.574Z,9.80
2019-02-06T14:48:07.409Z,9.87
2019-02-06T14:51:09.932Z,9.97
2019-02-06T14:53:43.796Z,11.50
2019-02-06T14:56:40.449Z,10.30
2019-02-06T14:59:31.898Z,11.90
2019-02-06T15:02:55.270Z,9.63
2019-02-06T15:05:56.134Z,10.87
2019-02-06T15:09:16.032Z,10.77
2019-02-06T15:12:23.884Z,12.00
2019-02-06T15:15:24.722Z,11.27
2019-02-06T15:18:49.150Z,10.47
2019-02-06T15:21:42.251Z,11.33
2019-02-06T15:24:19.320Z,10.30
2019-02-06T15:27:38.481Z,10.87
2019-02-06T15:30:48.330Z,10.20
2019-02-06T15:34:00.007Z,11.10
2019-02-06T15:37:07.293Z,10.37
2019-02-06T15:39:59.798Z,10.73
2019-02-06T15:42:39.276Z,10.83
2019-02-06T15:45:29.190Z,11.17
2019-02-06T15:48:21.635Z,11.60
2019-02-06T15:51:13.152Z,11.03
2019-02-06T15:54:13.547Z,10.33
2019-02-06T15:57:22.552Z,10.13
2019-02-06T16:00:52.739Z,10.83
2019-02-06T16:04:30.062Z,11.47
2019-02-06T16:07:53.119Z,11.57
2019-02-06T16:11:09.229Z,11.60
2019-02-06T16:14:18.815Z,12.33
2019-02-06T16:17:43.833Z,11.07
2019-02-06T16:20:51.768Z,12.43
2019-02-06T16:24:20.920Z,12.43
2019-02-06T16:27:22.515Z,11.17
2019-02-06T16:30:24.320Z,12.27
2019-02-06T16:33:37.384Z,12.10
2019-02-06T16:36:37.577Z,11.40
2019-02-06T16:39:30.468Z,13.77
2019-02-06T16:42:44.889Z,11.10
2019-02-06T16:45:48.415Z,12.47
2019-02-06T16:48:57.571Z,14.27
2019-02-06T16:51:35.941Z,12.83
2019-02-06T16:54:44.009Z,14.40
2019-02-06T16:57:46.973Z,13.60
2019-02-06T17:01:13.991Z,13.97
2019-02-06T17:04:10.772Z,12.77
2019-02-06T17:07:13.670Z,17.17
2019-02-06T17:10:02.035Z,13.83
2019-02-06T17:12:51.855Z,13.70
2019-02-06T17:15:57.005Z,13.93
2019-02-06T17:19:14.014Z,12.53
2019-02-06T17:22:17.947Z,14.70
2019-02-06T17:25:25.533Z,14.33
2019-02-06T17:28:25.172Z,14.23
2019-02-06T17:31:39.679Z,13.90
2019-02-06T17:34:48.935Z,11.67
2019-02-06T17:37:48.908Z,17.50
2019-02-06T17:40:58.004Z,12.00
2019-02-06T17:44:12.626Z,14.33
2019-02-06T17:47:24.022Z,13.13
2019-02-06T17:50:32.067Z,11.33
2019-02-06T17:53:35.051Z,13.33
2019-02-06T17:56:12.210Z,12.50
2019-02-06T17:59:10.535Z,16.30
2019-02-06T18:01:58.892Z,15.53
2019-02-06T18:04:34.249Z,15.07
2019-02-06T18:07:03.771Z,13.47
2019-02-06T18:09:34.940Z,16.10
2019-02-06T18:12:10.015Z,12.97
2019-02-06T18:14:37.592Z,12.80
2019-02-06T18:17:27.871Z,15.90
2019-02-06T18:19:59.051Z,20.50
2019-02-06T18:22:33.567Z,14.93
2019-02-06T18:25:04.771Z,12.63
2019-02-06T18:27:44.055Z,13.57
2019-02-06T18:30:18.277Z,14.63
2019-02-06T18:32:55.311Z,17.17
2019-02-06T18:35:36.713Z,14.43
2019-02-06T18:38:06.148Z,14.17
2019-02-06T18:40:53.064Z,13.70
2019-02-06T18:43:22.287Z,13.40
2019-02-06T18:45:53.154Z,15.83
2019-02-06T18:48:27.288Z,12.93
2019-02-06T18:51:05.373Z,13.70
2019-02-06T18:53:38.776Z,13.67
2019-02-06T18:56:06.271Z,15.57
2019-02-06T18:58:33.709Z,13.63
2019-02-06T19:01:01.222Z,13.93
2019-02-06T19:03:38.099Z,14.90
2019-02-06T19:06:05.964Z,18.47
2019-02-06T19:08:33.573Z,14.60
2019-02-06T19:11:01.287Z,14.27
2019-02-06T19:13:29.189Z,13.83
2019-02-06T19:15:56.879Z,14.57
2019-02-06T19:18:24.311Z,15.30
2019-02-06T19:20:52.018Z,16.13
2019-02-06T19:23:19.393Z,14.17
2019-02-06T19:25:46.792Z,15.13
2019-02-06T19:28:14.469Z,13.53
2019-02-06T19:30:41.970Z,15.43
2019-02-06T19:33:09.695Z,13.73
2019-02-06T19:35:37.371Z,18.10
2019-02-06T19:38:05.870Z,14.27
2019-02-06T19:40:33.828Z,14.43
2019-02-06T19:43:02.659Z,16.77
2019-02-06T19:45:30.521Z,15.37
2019-02-06T19:47:58.110Z,17.37
2019-02-06T19:50:28.227Z,16.27
2019-02-06T19:52:58.668Z,14.53
2019-02-06T19:55:26.192Z,18.80
2019-02-06T19:57:53.885Z,20.00
2019-02-06T20:00:24.084Z,16.10
2019-02-06T20:02:51.885Z,14.70
2019-02-06T20:05:19.428Z,17.50
2019-02-06T20:07:47.613Z,17.97
2019-02-06T20:10:18.158Z,15.30
2019-02-06T20:12:45.697Z,15.23
2019-02-06T20:15:13.515Z,15.23
2019-02-06T20:17:41.321Z,20.00
2019-02-06T20:20:10.627Z,14.47
2019-02-06T20:22:38.380Z,19.00
2019-02-06T20:25:06.794Z,14.63
2019-02-06T20:27:34.203Z,14.00
2019-02-06T20:30:01.936Z,16.40
2019-02-06T20:32:29.473Z,16.50
2019-02-06T20:34:57.406Z,12.57
2019-02-06T20:37:25.055Z,13.40
2019-02-06T20:39:52.639Z,20.40
2019-02-06T20:42:20.123Z,17.07
2019-02-06T20:44:47.615Z,15.20
2019-02-06T20:47:15.425Z,14.03
2019-02-06T20:49:42.805Z,15.70
2019-02-06T20:52:10.375Z,13.77
2019-02-06T20:54:37.916Z,14.50
2019-02-06T20:57:13.636Z,18.73
2019-02-06T20:59:34.867Z,14.13
2019-02-06T21:02:02.346Z,16.53
2019-02-06T21:04:30.404Z,12.93
2019-02-06T21:06:58.153Z,16.97
2019-02-06T21:09:25.501Z,12.70
2019-02-06T21:11:53.211Z,13.90
2019-02-06T21:14:20.741Z,12.30
2019-02-06T21:16:48.460Z,15.33
2019-02-06T21:19:16.713Z,13.90
2019-02-06T21:21:44.439Z,13.67
2019-02-06T21:24:12.165Z,15.47
2019-02-06T21:26:39.827Z,12.27
2019-02-06T21:29:07.276Z,12.67
2019-02-06T21:31:34.959Z,14.53
2019-02-06T21:34:02.417Z,12.73
2019-02-06T21:36:29.814Z,16.97
2019-02-06T21:38:58.036Z,12.00
2019-02-06T21:41:25.644Z,14.67
2019-02-06T21:43:53.087Z,12.53
2019-02-06T21:46:20.581Z,11.23
2019-02-06T21:48:48.361Z,13.20
2019-02-06T21:51:16.096Z,12.23
2019-02-06T21:53:43.525Z,13.83
2019-02-06T21:56:10.860Z,14.83
2019-02-06T21:58:38.584Z,13.80
2019-02-06T22:01:05.896Z,11.70
2019-02-06T22:03:33.274Z,15.43
2019-02-06T22:06:00.872Z,15.57
2019-02-06T22:08:28.293Z,12.03
2019-02-06T22:10:55.610Z,12.17
2019-02-06T22:13:22.940Z,13.17
2019-02-06T22:15:50.826Z,18.57
2019-02-06T22:18:18.240Z,14.70
2019-02-06T22:20:45.681Z,12.03
2019-02-06T22:23:13.378Z,13.10
2019-02-06T22:25:41.031Z,13.33
2019-02-06T22:28:08.758Z,12.17
2019-02-06T22:30:36.168Z,11.63
2019-02-06T22:33:04.020Z,10.90
2019-02-06T22:35:31.607Z,12.00
2019-02-06T22:37:59.190Z,10.37
2019-02-06T22:40:26.856Z,13.67
2019-02-06T22:42:54.274Z,11.87
2019-02-06T22:45:23.686Z,15.47
2019-02-06T22:47:51.086Z,12.80
2019-02-06T22:50:20.718Z,12.47
2019-02-06T22:52:48.876Z,9.80
2019-02-06T22:55:16.442Z,11.87
2019-02-06T22:57:44.033Z,15.53
2019-02-06T23:00:51.096Z,11.03
2019-02-06T23:03:35.808Z,12.80
2019-02-06T23:06:04.181Z,11.07
2019-02-06T23:08:31.470Z,13.13
2019-02-06T23:10:59.314Z,11.10
2019-02-06T23:13:26.772Z,10.50
2019-02-06T23:15:54.114Z,12.97
2019-02-06T23:18:21.740Z,10.67
2019-02-06T23:20:49.106Z,11.30
2019-02-06T23:23:16.530Z,9.93
2019-02-06T23:25:43.797Z,12.60
2019-02-06T23:28:11.680Z,10.20
2019-02-06T23:30:39.056Z,10.77
2019-02-06T23:33:06.424Z,14.60
2019-02-06T23:35:33.844Z,15.17
2019-02-06T23:38:01.484Z,9.73
2019-02-06T23:40:28.953Z,10.60
2019-02-06T23:42:56.544Z,10.77
2019-02-06T23:45:24.417Z,10.27
2019-02-06T23:47:51.880Z,9.27
2019-02-06T23:50:19.536Z,12.13
2019-02-06T23:52:46.908Z,10.57
2019-02-06T23:55:14.336Z,9.37
2019-02-06T23:57:41.688Z,10.97
